createdAt,value
2023-05-01T00:00:35.785Z,94838.00
2023-05-01T00:01:35.425Z,94840.00
2023-05-01T00:02:35.503Z,94842.00
2023-05-01T00:03:35.758Z,94836.00
2023-05-01T00:04:35.540Z,94836.00
2023-05-01T00:05:35.606Z,94836.00
2023-05-01T00:06:35.678Z,94836.00
2023-05-01T00:07:35.657Z,94834.00
2023-05-01T00:08:35.709Z,94836.00
2023-05-01T00:09:35.765Z,94832.00
2023-05-01T00:10:36.291Z,94838.00
2023-05-01T00:11:35.823Z,94834.00
2023-05-01T00:12:35.910Z,94836.00
2023-05-01T00:13:35.960Z,94836.00
2023-05-01T00:14:35.962Z,94834.00
2023-05-01T00:15:35.996Z,94834.00
2023-05-01T00:16:36.092Z,94832.00
2023-05-01T00:17:36.062Z,94830.00
2023-05-01T00:18:36.032Z,94830.00
2023-05-01T00:19:36.089Z,94828.00
2023-05-01T00:20:36.133Z,94830.00
2023-05-01T00:21:36.168Z,94830.00
2023-05-01T00:22:36.162Z,94832.00
2023-05-01T00:23:36.236Z,94830.00
2023-05-01T00:24:36.265Z,94830.00
2023-05-01T00:25:36.299Z,94832.00
2023-05-01T00:26:36.348Z,94832.00
2023-05-01T00:27:36.392Z,94830.00
2023-05-01T00:28:36.425Z,94828.00
2023-05-01T00:29:36.476Z,94826.00
2023-05-01T00:30:36.508Z,94824.00
2023-05-01T00:31:36.549Z,94822.00
2023-05-01T00:32:36.650Z,94820.00
2023-05-01T00:33:36.676Z,94820.00
2023-05-01T00:34:36.707Z,94820.00
2023-05-01T00:35:36.723Z,94820.00
2023-05-01T00:36:36.784Z,94820.00
2023-05-01T00:37:36.792Z,94818.00
2023-05-01T00:38:36.852Z,94816.00
2023-05-01T00:39:36.905Z,94816.00
2023-05-01T00:40:37.318Z,94818.00
2023-05-01T00:41:37.062Z,94822.00
2023-05-01T00:42:37.056Z,94826.00
2023-05-01T00:43:37.128Z,94826.00
2023-05-01T00:44:37.200Z,94826.00
2023-05-01T00:45:37.210Z,94822.00
2023-05-01T00:46:37.254Z,94818.00
2023-05-01T00:47:37.381Z,94814.00
2023-05-01T00:48:37.348Z,94816.00
2023-05-01T00:49:37.506Z,94818.00
2023-05-01T00:50:37.452Z,94814.00
2023-05-01T00:51:37.516Z,94814.00
2023-05-01T00:52:37.526Z,94812.00
2023-05-01T00:53:37.573Z,94810.00
2023-05-01T00:54:37.617Z,94812.00
2023-05-01T00:55:37.650Z,94812.00
2023-05-01T00:56:37.684Z,94812.00
2023-05-01T00:57:37.726Z,94814.00
2023-05-01T00:58:37.724Z,94810.00
2023-05-01T00:59:37.776Z,94810.00
2023-05-01T01:00:37.792Z,94808.00
2023-05-01T01:01:37.935Z,94807.00
2023-05-01T01:02:37.879Z,94807.00
2023-05-01T01:03:37.843Z,94805.00
2023-05-01T01:04:37.913Z,94805.00
2023-05-01T01:05:37.895Z,94807.00
2023-05-01T01:06:37.985Z,94803.00
2023-05-01T01:07:37.944Z,94803.00
2023-05-01T01:08:37.941Z,94803.00
2023-05-01T01:09:37.982Z,94803.00
2023-05-01T01:10:37.984Z,94807.00
2023-05-01T01:11:38.031Z,94807.00
2023-05-01T01:12:38.031Z,94808.00
2023-05-01T01:13:38.043Z,94805.00
2023-05-01T01:14:38.093Z,94801.00
2023-05-01T01:15:38.088Z,94801.00
2023-05-01T01:16:38.160Z,94799.00
2023-05-01T01:17:38.174Z,94801.00
2023-05-01T01:18:38.182Z,94801.00
2023-05-01T01:19:38.195Z,94801.00
2023-05-01T01:20:38.334Z,94801.00
2023-05-01T01:21:38.259Z,94803.00
2023-05-01T01:22:38.269Z,94799.00
2023-05-01T01:23:38.291Z,94805.00
2023-05-01T01:24:38.336Z,94801.00
2023-05-01T01:25:38.330Z,94801.00
2023-05-01T01:26:38.354Z,94799.00
2023-05-01T01:27:38.355Z,94799.00
2023-05-01T01:28:38.361Z,94799.00
2023-05-01T01:29:38.365Z,94799.00
2023-05-01T01:30:39.007Z,94801.00
2023-05-01T01:31:38.447Z,94801.00
2023-05-01T01:32:38.470Z,94803.00
2023-05-01T01:33:38.460Z,94803.00
2023-05-01T01:34:38.477Z,94801.00
2023-05-01T01:35:38.839Z,94801.00
2023-05-01T01:36:38.497Z,94799.00
2023-05-01T01:37:38.569Z,94799.00
2023-05-01T01:38:38.563Z,94799.00
2023-05-01T01:39:38.597Z,94797.00
2023-05-01T01:40:38.856Z,94799.00
2023-05-01T01:41:38.647Z,94799.00
2023-05-01T01:42:38.628Z,94797.00
2023-05-01T01:43:38.655Z,94797.00
2023-05-01T01:44:38.685Z,94795.00
2023-05-01T01:45:38.694Z,94795.00
2023-05-01T01:46:38.799Z,94793.00
2023-05-01T01:47:38.743Z,94793.00
2023-05-01T01:48:38.787Z,94789.00
2023-05-01T01:49:38.781Z,94789.00
2023-05-01T01:50:38.861Z,94789.00
2023-05-01T01:51:38.861Z,94789.00
2023-05-01T01:52:38.899Z,94787.00
2023-05-01T01:53:38.965Z,94787.00
2023-05-01T01:54:38.992Z,94787.00
2023-05-01T01:55:39.353Z,94789.00
2023-05-01T01:56:39.063Z,94787.00
2023-05-01T01:57:39.107Z,94789.00
2023-05-01T01:58:39.149Z,94787.00
2023-05-01T01:59:39.188Z,94787.00
2023-05-01T02:00:39.206Z,94787.00
2023-05-01T02:01:39.291Z,94785.00
2023-05-01T02:02:39.363Z,94785.00
2023-05-01T02:03:39.420Z,94785.00
2023-05-01T02:04:39.324Z,94785.00
2023-05-01T02:05:39.334Z,94785.00
2023-05-01T02:06:39.397Z,94783.00
2023-05-01T02:07:39.415Z,94779.00
2023-05-01T02:08:39.426Z,94779.00
2023-05-01T02:09:39.524Z,94779.00
2023-05-01T02:10:39.502Z,94781.00
2023-05-01T02:11:39.575Z,94781.00
2023-05-01T02:12:39.606Z,94781.00
2023-05-01T02:13:39.672Z,94779.00
2023-05-01T02:14:39.670Z,94771.00
2023-05-01T02:15:39.809Z,94771.00
2023-05-01T02:16:39.808Z,94773.00
2023-05-01T02:17:39.941Z,94779.00
2023-05-01T02:18:39.827Z,94779.00
2023-05-01T02:19:39.853Z,94775.00
2023-05-01T02:20:40.366Z,94775.00
2023-05-01T02:21:39.980Z,94771.00
2023-05-01T02:22:39.999Z,94767.00
2023-05-01T02:23:40.095Z,94765.00
2023-05-01T02:24:40.091Z,94763.00
2023-05-01T02:25:40.389Z,94765.00
2023-05-01T02:26:40.189Z,94773.00
2023-05-01T02:27:40.237Z,94769.00
2023-05-01T02:28:40.292Z,94767.00
2023-05-01T02:29:40.317Z,94765.00
2023-05-01T02:30:40.865Z,94761.00
2023-05-01T02:31:40.425Z,94765.00
2023-05-01T02:32:40.458Z,94763.00
2023-05-01T02:33:40.427Z,94765.00
2023-05-01T02:34:40.448Z,94760.00
2023-05-01T02:35:40.476Z,94761.00
2023-05-01T02:36:40.471Z,94761.00
2023-05-01T02:37:40.461Z,94761.00
2023-05-01T02:38:40.495Z,94761.00
2023-05-01T02:39:40.560Z,94758.00
2023-05-01T02:40:40.564Z,94756.00
2023-05-01T02:41:40.665Z,94756.00
2023-05-01T02:42:40.545Z,94758.00
2023-05-01T02:43:40.587Z,94758.00
2023-05-01T02:44:40.644Z,94758.00
2023-05-01T02:45:40.686Z,94758.00
2023-05-01T02:46:40.672Z,94758.00
2023-05-01T02:47:40.685Z,94756.00
2023-05-01T02:48:40.674Z,94756.00
2023-05-01T02:49:40.631Z,94752.00
2023-05-01T02:50:40.867Z,94750.00
2023-05-01T02:51:40.653Z,94750.00
2023-05-01T02:52:40.659Z,94748.00
2023-05-01T02:53:40.621Z,94748.00
2023-05-01T02:54:40.676Z,94748.00
2023-05-01T02:55:40.671Z,94750.00
2023-05-01T02:56:40.685Z,94748.00
2023-05-01T02:57:40.792Z,94746.00
2023-05-01T02:58:40.680Z,94746.00
2023-05-01T02:59:40.738Z,94746.00
2023-05-01T03:00:40.756Z,94744.00
2023-05-01T03:01:40.933Z,94744.00
2023-05-01T03:02:40.852Z,94742.00
2023-05-01T03:03:40.866Z,94740.00
2023-05-01T03:04:40.936Z,94742.00
2023-05-01T03:05:40.862Z,94744.00
2023-05-01T03:06:41.553Z,94744.00
2023-05-01T03:07:40.912Z,94744.00
2023-05-01T03:08:40.940Z,94742.00
2023-05-01T03:09:40.910Z,94740.00
2023-05-01T03:10:40.953Z,94740.00
2023-05-01T03:11:41.002Z,94738.00
2023-05-01T03:12:40.935Z,94740.00
2023-05-01T03:13:40.970Z,94740.00
2023-05-01T03:14:40.961Z,94740.00
2023-05-01T03:15:40.963Z,94738.00
2023-05-01T03:16:41.096Z,94738.00
2023-05-01T03:17:41.037Z,94736.00
2023-05-01T03:18:41.034Z,94736.00
2023-05-01T03:19:41.050Z,94736.00
2023-05-01T03:20:41.097Z,94734.00
2023-05-01T03:21:41.129Z,94734.00
2023-05-01T03:22:41.141Z,94732.00
2023-05-01T03:23:41.124Z,94732.00
2023-05-01T03:24:41.184Z,94734.00
2023-05-01T03:25:41.195Z,94728.00
2023-05-01T03:26:41.200Z,94730.00
2023-05-01T03:27:41.260Z,94730.00
2023-05-01T03:28:41.227Z,94730.00
2023-05-01T03:29:41.228Z,94732.00
2023-05-01T03:30:41.220Z,94732.00
2023-05-01T03:31:41.321Z,94728.00
2023-05-01T03:32:41.226Z,94728.00
2023-05-01T03:33:41.202Z,94724.00
2023-05-01T03:34:41.237Z,94724.00
2023-05-01T03:35:41.274Z,94724.00
2023-05-01T03:36:41.196Z,94724.00
2023-05-01T03:37:41.219Z,94724.00
2023-05-01T03:38:41.215Z,94726.00
2023-05-01T03:39:41.170Z,94724.00
2023-05-01T03:40:41.251Z,94726.00
2023-05-01T03:41:41.189Z,94720.00
2023-05-01T03:42:41.211Z,94720.00
2023-05-01T03:43:41.216Z,94720.00
2023-05-01T03:44:41.228Z,94720.00
2023-05-01T03:45:43.261Z,94718.00
2023-05-01T03:46:41.305Z,94722.00
2023-05-01T03:47:41.222Z,94720.00
2023-05-01T03:48:41.194Z,94720.00
2023-05-01T03:49:41.194Z,94716.00
2023-05-01T03:50:41.183Z,94716.00
2023-05-01T03:51:41.177Z,94714.00
2023-05-01T03:52:41.160Z,94713.00
2023-05-01T03:53:41.169Z,94714.00
2023-05-01T03:54:41.197Z,94713.00
2023-05-01T03:55:41.167Z,94713.00
2023-05-01T03:56:41.134Z,94711.00
2023-05-01T03:57:41.177Z,94709.00
2023-05-01T03:58:41.144Z,94711.00
2023-05-01T03:59:41.132Z,94711.00
2023-05-01T04:00:41.118Z,94711.00
2023-05-01T04:01:41.186Z,94711.00
2023-05-01T04:02:41.186Z,94709.00
2023-05-01T04:03:41.239Z,94707.00
2023-05-01T04:04:41.161Z,94711.00
2023-05-01T04:05:41.078Z,94709.00
2023-05-01T04:06:41.168Z,94711.00
2023-05-01T04:07:41.090Z,94711.00
2023-05-01T04:08:41.048Z,94709.00
2023-05-01T04:09:41.084Z,94707.00
2023-05-01T04:10:41.040Z,94707.00
2023-05-01T04:11:41.034Z,94709.00
2023-05-01T04:12:41.044Z,94709.00
2023-05-01T04:13:41.049Z,94709.00
2023-05-01T04:14:41.018Z,94705.00
2023-05-01T04:15:41.007Z,94707.00
2023-05-01T04:16:41.220Z,94707.00
2023-05-01T04:17:41.130Z,94709.00
2023-05-01T04:18:40.995Z,94705.00
2023-05-01T04:19:40.975Z,94707.00
2023-05-01T04:20:40.987Z,94709.00
2023-05-01T04:21:40.982Z,94707.00
2023-05-01T04:22:40.962Z,94709.00
2023-05-01T04:23:40.948Z,94709.00
2023-05-01T04:24:40.986Z,94709.00
2023-05-01T04:25:40.930Z,94707.00
2023-05-01T04:26:40.945Z,94705.00
2023-05-01T04:27:40.934Z,94705.00
2023-05-01T04:28:40.901Z,94705.00
2023-05-01T04:29:40.911Z,94707.00
2023-05-01T04:30:40.920Z,94707.00
2023-05-01T04:31:40.960Z,94705.00
2023-05-01T04:32:40.933Z,94703.00
2023-05-01T04:33:40.890Z,94703.00
2023-05-01T04:34:40.903Z,94703.00
2023-05-01T04:35:40.855Z,94705.00
2023-05-01T04:36:40.913Z,94705.00
2023-05-01T04:37:40.870Z,94705.00
2023-05-01T04:38:40.838Z,94701.00
2023-05-01T04:39:40.883Z,94701.00
2023-05-01T04:40:40.889Z,94701.00
2023-05-01T04:41:40.812Z,94699.00
2023-05-01T04:42:40.827Z,94701.00
2023-05-01T04:43:40.872Z,94703.00
2023-05-01T04:44:40.806Z,94703.00
2023-05-01T04:45:40.820Z,94703.00
2023-05-01T04:46:40.929Z,94703.00
2023-05-01T04:47:40.850Z,94701.00
2023-05-01T04:48:40.789Z,94705.00
2023-05-01T04:49:40.789Z,94703.00
2023-05-01T04:50:40.787Z,94705.00
2023-05-01T04:51:40.752Z,94703.00
2023-05-01T04:52:40.774Z,94701.00
2023-05-01T04:53:40.736Z,94701.00
2023-05-01T04:54:40.737Z,94705.00
2023-05-01T04:55:40.745Z,94709.00
2023-05-01T04:56:40.717Z,94707.00
2023-05-01T04:57:40.751Z,94707.00
2023-05-01T04:58:40.722Z,94709.00
2023-05-01T04:59:40.853Z,94705.00
2023-05-01T05:00:40.723Z,94709.00
2023-05-01T05:01:41.098Z,94709.00
2023-05-01T05:02:40.788Z,94713.00
2023-05-01T05:03:40.773Z,94713.00
2023-05-01T05:04:40.706Z,94713.00
2023-05-01T05:05:40.684Z,94713.00
2023-05-01T05:06:40.756Z,94713.00
2023-05-01T05:07:40.659Z,94713.00
2023-05-01T05:08:40.671Z,94714.00
2023-05-01T05:09:40.648Z,94711.00
2023-05-01T05:10:40.635Z,94713.00
2023-05-01T05:11:40.663Z,94714.00
2023-05-01T05:12:40.624Z,94716.00
2023-05-01T05:13:40.629Z,94716.00
2023-05-01T05:14:40.606Z,94716.00
2023-05-01T05:15:40.619Z,94714.00
2023-05-01T05:16:40.988Z,94716.00
2023-05-01T05:17:40.659Z,94713.00
2023-05-01T05:18:40.565Z,94714.00
2023-05-01T05:19:40.576Z,94713.00
2023-05-01T05:20:40.578Z,94711.00
2023-05-01T05:21:40.554Z,94709.00
2023-05-01T05:22:40.518Z,94711.00
2023-05-01T05:23:40.526Z,94709.00
2023-05-01T05:24:40.562Z,94707.00
2023-05-01T05:25:40.518Z,94707.00
2023-05-01T05:26:40.534Z,94709.00
2023-05-01T05:27:40.524Z,94705.00
2023-05-01T05:28:40.499Z,94709.00
2023-05-01T05:29:40.511Z,94707.00
2023-05-01T05:30:40.487Z,94707.00
2023-05-01T05:31:40.507Z,94707.00
2023-05-01T05:32:40.509Z,94707.00
2023-05-01T05:33:40.477Z,94707.00
2023-05-01T05:34:40.469Z,94707.00
2023-05-01T05:35:40.449Z,94709.00
2023-05-01T05:36:40.475Z,94707.00
2023-05-01T05:37:40.422Z,94707.00
2023-05-01T05:38:40.438Z,94711.00
2023-05-01T05:39:40.411Z,94714.00
2023-05-01T05:40:40.416Z,94713.00
2023-05-01T05:41:40.440Z,94714.00
2023-05-01T05:42:40.398Z,94714.00
2023-05-01T05:43:40.415Z,94714.00
2023-05-01T05:44:40.469Z,94714.00
2023-05-01T05:45:40.408Z,94713.00
2023-05-01T05:46:40.561Z,94714.00
2023-05-01T05:47:40.395Z,94713.00
2023-05-01T05:48:40.344Z,94713.00
2023-05-01T05:49:40.350Z,94713.00
2023-05-01T05:50:40.353Z,94714.00
2023-05-01T05:51:40.355Z,94711.00
2023-05-01T05:52:40.346Z,94713.00
2023-05-01T05:53:40.325Z,94713.00
2023-05-01T05:54:40.327Z,94713.00
2023-05-01T05:55:40.312Z,94714.00
2023-05-01T05:56:40.504Z,94714.00
2023-05-01T05:57:40.313Z,94714.00
2023-05-01T05:58:40.322Z,94711.00
2023-05-01T05:59:40.288Z,94711.00
2023-05-01T06:00:40.288Z,94713.00
2023-05-01T06:01:40.467Z,94714.00
2023-05-01T06:02:40.392Z,94714.00
2023-05-01T06:03:40.319Z,94714.00
2023-05-01T06:04:40.297Z,94713.00
2023-05-01T06:05:40.299Z,94714.00
2023-05-01T06:06:40.469Z,94714.00
2023-05-01T06:07:40.254Z,94716.00
2023-05-01T06:08:40.242Z,94713.00
2023-05-01T06:09:40.250Z,94711.00
2023-05-01T06:10:40.235Z,94707.00
2023-05-01T06:11:40.250Z,94707.00
2023-05-01T06:12:43.388Z,94707.00
2023-05-01T06:13:41.204Z,94711.00
2023-05-01T06:14:40.186Z,94709.00
2023-05-01T06:15:40.257Z,94709.00
2023-05-01T06:16:40.291Z,94707.00
2023-05-01T06:17:40.474Z,94707.00
2023-05-01T06:18:40.171Z,94705.00
2023-05-01T06:19:40.146Z,94707.00
2023-05-01T06:20:40.162Z,94707.00
2023-05-01T06:21:40.163Z,94707.00
2023-05-01T06:22:40.132Z,94705.00
2023-05-01T06:23:40.129Z,94703.00
2023-05-01T06:24:40.126Z,94705.00
2023-05-01T06:25:40.125Z,94705.00
2023-05-01T06:26:40.099Z,94701.00
2023-05-01T06:27:40.117Z,94703.00
2023-05-01T06:28:40.147Z,94705.00
2023-05-01T06:29:40.085Z,94705.00
2023-05-01T06:30:40.078Z,94705.00
2023-05-01T06:31:40.133Z,94705.00
2023-05-01T06:32:40.105Z,94703.00
2023-05-01T06:33:40.069Z,94703.00
2023-05-01T06:34:40.053Z,94701.00
2023-05-01T06:35:40.070Z,94699.00
2023-05-01T06:36:40.051Z,94699.00
2023-05-01T06:37:40.023Z,94697.00
2023-05-01T06:38:40.050Z,94695.00
2023-05-01T06:39:40.026Z,94697.00
2023-05-01T06:40:40.020Z,94697.00
2023-05-01T06:41:39.980Z,94699.00
2023-05-01T06:42:39.999Z,94701.00
2023-05-01T06:43:40.008Z,94699.00
2023-05-01T06:44:39.978Z,94699.00
2023-05-01T06:45:40.963Z,94699.00
2023-05-01T06:46:40.066Z,94699.00
2023-05-01T06:47:40.095Z,94699.00
2023-05-01T06:48:40.009Z,94701.00
2023-05-01T06:49:40.012Z,94701.00
2023-05-01T06:50:40.067Z,94701.00
2023-05-01T06:51:40.030Z,94703.00
2023-05-01T06:52:40.113Z,94703.00
2023-05-01T06:53:40.067Z,94703.00
2023-05-01T06:54:40.074Z,94703.00
2023-05-01T06:55:40.122Z,94703.00
2023-05-01T06:56:40.162Z,94705.00
2023-05-01T06:57:40.163Z,94703.00
2023-05-01T06:58:40.156Z,94705.00
2023-05-01T06:59:40.170Z,94703.00
2023-05-01T07:00:40.271Z,94705.00
2023-05-01T07:01:40.244Z,94703.00
2023-05-01T07:02:40.319Z,94709.00
2023-05-01T07:03:40.253Z,94701.00
2023-05-01T07:04:40.249Z,94703.00
2023-05-01T07:05:40.258Z,94703.00
2023-05-01T07:06:40.330Z,94703.00
2023-05-01T07:07:47.207Z,94703.00
2023-05-01T07:08:41.310Z,94703.00
2023-05-01T07:09:40.288Z,94707.00
2023-05-01T07:10:42.059Z,94707.00
2023-05-01T07:11:40.276Z,94705.00
2023-05-01T07:12:40.498Z,94705.00
2023-05-01T07:13:40.409Z,94703.00
2023-05-01T07:14:40.270Z,94705.00
2023-05-01T07:15:40.264Z,94703.00
2023-05-01T07:16:40.267Z,94705.00
2023-05-01T07:17:40.289Z,94707.00
2023-05-01T07:18:40.271Z,94707.00
2023-05-01T07:19:40.299Z,94707.00
2023-05-01T07:20:40.307Z,94705.00
2023-05-01T07:21:40.362Z,94705.00
2023-05-01T07:22:40.964Z,94705.00
2023-05-01T07:23:40.385Z,94707.00
2023-05-01T07:24:40.433Z,94707.00
2023-05-01T07:25:40.443Z,94703.00
2023-05-01T07:26:40.519Z,94709.00
2023-05-01T07:27:40.523Z,94707.00
2023-05-01T07:28:40.505Z,94707.00
2023-05-01T07:29:40.505Z,94707.00
2023-05-01T07:30:40.553Z,94703.00
2023-05-01T07:31:40.562Z,94701.00
2023-05-01T07:32:41.087Z,94699.00
2023-05-01T07:33:40.603Z,94697.00
2023-05-01T07:34:40.590Z,94699.00
2023-05-01T07:35:40.608Z,94697.00
2023-05-01T07:36:40.615Z,94697.00
2023-05-01T07:37:40.662Z,94697.00
2023-05-01T07:38:41.500Z,94699.00
2023-05-01T07:39:40.667Z,94701.00
2023-05-01T07:40:40.686Z,94701.00
2023-05-01T07:41:40.692Z,94697.00
2023-05-01T07:42:40.692Z,94697.00
2023-05-01T07:43:40.699Z,94697.00
2023-05-01T07:44:40.730Z,94697.00
2023-05-01T07:45:40.812Z,94693.00
2023-05-01T07:46:40.811Z,94691.00
2023-05-01T07:47:40.836Z,94691.00
2023-05-01T07:48:40.785Z,94691.00
2023-05-01T07:49:40.846Z,94691.00
2023-05-01T07:50:40.845Z,94691.00
2023-05-01T07:51:40.895Z,94693.00
2023-05-01T07:52:40.990Z,94695.00
2023-05-01T07:53:40.962Z,94697.00
2023-05-01T07:54:40.963Z,94695.00
2023-05-01T07:55:40.998Z,94697.00
2023-05-01T07:56:41.023Z,94697.00
2023-05-01T07:57:41.560Z,94695.00
2023-05-01T07:58:41.056Z,94693.00
2023-05-01T07:59:41.075Z,94693.00
2023-05-01T08:00:41.105Z,94693.00
2023-05-01T08:01:41.134Z,94693.00
2023-05-01T08:02:41.336Z,94693.00
2023-05-01T08:03:41.228Z,94693.00
2023-05-01T08:04:41.251Z,94693.00
2023-05-01T08:05:41.190Z,94689.00
2023-05-01T08:06:41.279Z,94689.00
2023-05-01T08:07:41.200Z,94689.00
2023-05-01T08:08:41.256Z,94687.00
2023-05-01T08:09:41.250Z,94685.00
2023-05-01T08:10:41.263Z,94687.00
2023-05-01T08:11:41.293Z,94685.00
2023-05-01T08:12:41.555Z,94685.00
2023-05-01T08:13:41.313Z,94683.00
2023-05-01T08:14:41.320Z,94687.00
2023-05-01T08:15:41.408Z,94683.00
2023-05-01T08:16:41.411Z,94687.00
2023-05-01T08:17:41.482Z,94687.00
2023-05-01T08:18:41.437Z,94687.00
2023-05-01T08:19:41.458Z,94689.00
2023-05-01T08:20:41.498Z,94689.00
2023-05-01T08:21:41.479Z,94689.00
2023-05-01T08:22:41.519Z,94687.00
2023-05-01T08:23:41.576Z,94689.00
2023-05-01T08:24:41.590Z,94687.00
2023-05-01T08:25:41.593Z,94683.00
2023-05-01T08:26:41.697Z,94685.00
2023-05-01T08:27:41.719Z,94685.00
2023-05-01T08:28:41.764Z,94685.00
2023-05-01T08:29:41.786Z,94685.00
2023-05-01T08:30:41.799Z,94685.00
2023-05-01T08:31:41.993Z,94685.00
2023-05-01T08:32:41.934Z,94685.00
2023-05-01T08:33:41.978Z,94683.00
2023-05-01T08:34:42.003Z,94687.00
2023-05-01T08:35:42.065Z,94685.00
2023-05-01T08:36:42.123Z,94685.00
2023-05-01T08:37:42.194Z,94683.00
2023-05-01T08:38:42.247Z,94683.00
2023-05-01T08:39:42.327Z,94681.00
2023-05-01T08:40:42.364Z,94681.00
2023-05-01T08:41:42.468Z,94679.00
2023-05-01T08:42:42.498Z,94679.00
2023-05-01T08:43:42.540Z,94677.00
2023-05-01T08:44:42.614Z,94677.00
2023-05-01T08:45:42.641Z,94673.00
2023-05-01T08:46:42.756Z,94671.00
2023-05-01T08:47:43.108Z,94667.00
2023-05-01T08:48:42.816Z,94667.00
2023-05-01T08:49:42.889Z,94667.00
2023-05-01T08:50:42.927Z,94667.00
2023-05-01T08:51:42.999Z,94663.00
2023-05-01T08:52:43.615Z,94665.00
2023-05-01T08:53:43.116Z,94663.00
2023-05-01T08:54:43.180Z,94663.00
2023-05-01T08:55:43.203Z,94661.00
2023-05-01T08:56:43.289Z,94663.00
2023-05-01T08:57:43.328Z,94663.00
2023-05-01T08:58:43.405Z,94659.00
2023-05-01T08:59:43.442Z,94661.00
2023-05-01T09:00:43.488Z,94661.00
2023-05-01T09:01:43.641Z,94667.00
2023-05-01T09:02:43.670Z,94663.00
2023-05-01T09:03:43.734Z,94667.00
2023-05-01T09:04:43.780Z,94667.00
2023-05-01T09:05:43.864Z,94665.00
2023-05-01T09:06:44.019Z,94665.00
2023-05-01T09:07:44.025Z,94663.00
2023-05-01T09:08:44.072Z,94661.00
2023-05-01T09:09:44.087Z,94659.00
2023-05-01T09:10:44.186Z,94658.00
2023-05-01T09:11:44.208Z,94659.00
2023-05-01T09:12:44.283Z,94658.00
2023-05-01T09:13:44.363Z,94659.00
2023-05-01T09:14:44.449Z,94659.00
2023-05-01T09:15:44.545Z,94659.00
2023-05-01T09:16:44.622Z,94658.00
2023-05-01T09:17:44.714Z,94658.00
2023-05-01T09:18:44.716Z,94654.00
2023-05-01T09:19:44.760Z,94656.00
2023-05-01T09:20:44.848Z,94654.00
2023-05-01T09:21:44.860Z,94654.00
2023-05-01T09:22:44.898Z,94652.00
2023-05-01T09:23:44.989Z,94656.00
2023-05-01T09:24:45.037Z,94652.00
2023-05-01T09:25:45.093Z,94652.00
2023-05-01T09:26:45.130Z,94650.00
2023-05-01T09:27:45.248Z,94650.00
2023-05-01T09:28:45.269Z,94650.00
2023-05-01T09:29:45.307Z,94652.00
2023-05-01T09:30:45.426Z,94650.00
2023-05-01T09:31:45.499Z,94648.00
2023-05-01T09:32:45.589Z,94644.00
2023-05-01T09:33:45.594Z,94640.00
2023-05-01T09:34:45.649Z,94640.00
2023-05-01T09:35:45.653Z,94636.00
2023-05-01T09:36:45.744Z,94636.00
2023-05-01T09:37:47.543Z,94628.00
2023-05-01T09:38:45.831Z,94628.00
2023-05-01T09:39:45.919Z,94626.00
2023-05-01T09:40:45.951Z,94624.00
2023-05-01T09:41:46.016Z,94626.00
2023-05-01T09:42:46.067Z,94624.00
2023-05-01T09:43:46.098Z,94622.00
2023-05-01T09:44:46.187Z,94620.00
2023-05-01T09:45:46.251Z,94618.00
2023-05-01T09:46:46.299Z,94620.00
2023-05-01T09:47:46.432Z,94618.00
2023-05-01T09:48:46.464Z,94616.00
2023-05-01T09:49:46.492Z,94616.00
2023-05-01T09:50:46.499Z,94613.00
2023-05-01T09:51:46.593Z,94614.00
2023-05-01T09:52:47.057Z,94614.00
2023-05-01T09:53:46.713Z,94613.00
2023-05-01T09:54:46.715Z,94613.00
2023-05-01T09:55:46.789Z,94611.00
2023-05-01T09:56:46.830Z,94609.00
2023-05-01T09:57:46.935Z,94609.00
2023-05-01T09:58:46.952Z,94609.00
2023-05-01T09:59:46.965Z,94613.00
2023-05-01T10:00:47.079Z,94609.00
2023-05-01T10:01:47.210Z,94609.00
2023-05-01T10:02:47.259Z,94607.00
2023-05-01T10:03:47.398Z,94605.00
2023-05-01T10:04:47.241Z,94603.00
2023-05-01T10:05:47.310Z,94605.00
2023-05-01T10:06:47.400Z,94599.00
2023-05-01T10:07:47.550Z,94605.00
2023-05-01T10:08:47.525Z,94601.00
2023-05-01T10:09:47.554Z,94601.00
2023-05-01T10:10:47.559Z,94599.00
2023-05-01T10:11:47.640Z,94599.00
2023-05-01T10:12:48.053Z,94595.00
2023-05-01T10:13:47.742Z,94593.00
2023-05-01T10:14:47.780Z,94591.00
2023-05-01T10:15:47.852Z,94593.00
2023-05-01T10:16:47.939Z,94593.00
2023-05-01T10:17:47.975Z,94595.00
2023-05-01T10:18:47.983Z,94591.00
2023-05-01T10:19:48.027Z,94589.00
2023-05-01T10:20:48.081Z,94589.00
2023-05-01T10:21:48.140Z,94589.00
2023-05-01T10:22:48.200Z,94591.00
2023-05-01T10:23:48.270Z,94591.00
2023-05-01T10:24:48.309Z,94587.00
2023-05-01T10:25:48.361Z,94591.00
2023-05-01T10:26:48.384Z,94591.00
2023-05-01T10:27:48.466Z,94591.00
2023-05-01T10:28:48.521Z,94591.00
2023-05-01T10:29:48.568Z,94589.00
2023-05-01T10:30:48.612Z,94587.00
2023-05-01T10:31:48.727Z,94589.00
2023-05-01T10:32:48.727Z,94589.00
2023-05-01T10:33:48.731Z,94587.00
2023-05-01T10:34:48.788Z,94585.00
2023-05-01T10:35:48.826Z,94587.00
2023-05-01T10:36:48.856Z,94579.00
2023-05-01T10:37:48.919Z,94579.00
2023-05-01T10:38:48.954Z,94581.00
2023-05-01T10:39:49.032Z,94579.00
2023-05-01T10:40:49.062Z,94577.00
2023-05-01T10:41:49.218Z,94573.00
2023-05-01T10:42:49.162Z,94573.00
2023-05-01T10:43:49.195Z,94571.00
2023-05-01T10:44:49.225Z,94571.00
2023-05-01T10:45:49.415Z,94569.00
2023-05-01T10:46:49.380Z,94569.00
2023-05-01T10:47:49.609Z,94567.00
2023-05-01T10:48:49.392Z,94564.00
2023-05-01T10:49:49.436Z,94562.00
2023-05-01T10:50:49.465Z,94562.00
2023-05-01T10:51:49.522Z,94564.00
2023-05-01T10:52:49.563Z,94564.00
2023-05-01T10:53:49.597Z,94562.00
2023-05-01T10:54:49.610Z,94562.00
2023-05-01T10:55:49.669Z,94556.00
2023-05-01T10:56:49.715Z,94554.00
2023-05-01T10:57:49.773Z,94552.00
2023-05-01T10:58:49.764Z,94552.00
2023-05-01T10:59:49.850Z,94550.00
2023-05-01T11:00:49.862Z,94550.00
2023-05-01T11:01:49.934Z,94548.00
2023-05-01T11:02:50.007Z,94548.00
2023-05-01T11:03:49.983Z,94546.00
2023-05-01T11:04:50.087Z,94540.00
2023-05-01T11:05:50.140Z,94544.00
2023-05-01T11:06:50.177Z,94540.00
2023-05-01T11:07:50.172Z,94538.00
2023-05-01T11:08:50.212Z,94538.00
2023-05-01T11:09:50.254Z,94538.00
2023-05-01T11:10:50.305Z,94538.00
2023-05-01T11:11:50.493Z,94534.00
2023-05-01T11:12:50.387Z,94536.00
2023-05-01T11:13:50.463Z,94538.00
2023-05-01T11:14:50.448Z,94534.00
2023-05-01T11:15:50.516Z,94536.00
2023-05-01T11:16:50.676Z,94534.00
2023-05-01T11:17:50.662Z,94532.00
2023-05-01T11:18:50.620Z,94530.00
2023-05-01T11:19:50.675Z,94530.00
2023-05-01T11:20:50.710Z,94530.00
2023-05-01T11:21:50.774Z,94530.00
2023-05-01T11:22:50.796Z,94532.00
2023-05-01T11:23:50.849Z,94530.00
2023-05-01T11:24:50.888Z,94532.00
2023-05-01T11:25:50.920Z,94530.00
2023-05-01T11:26:50.950Z,94528.00
2023-05-01T11:27:51.050Z,94528.00
2023-05-01T11:28:51.039Z,94526.00
2023-05-01T11:29:51.085Z,94522.00
2023-05-01T11:30:51.088Z,94524.00
2023-05-01T11:31:51.228Z,94524.00
2023-05-01T11:32:51.262Z,94522.00
2023-05-01T11:33:51.248Z,94522.00
2023-05-01T11:34:51.276Z,94520.00
2023-05-01T11:35:51.301Z,94518.00
2023-05-01T11:36:51.356Z,94518.00
2023-05-01T11:37:51.430Z,94516.00
2023-05-01T11:38:51.427Z,94514.00
2023-05-01T11:39:51.474Z,94512.00
2023-05-01T11:40:51.504Z,94511.00
2023-05-01T11:41:51.568Z,94512.00
2023-05-01T11:42:51.622Z,94509.00
2023-05-01T11:43:51.624Z,94511.00
2023-05-01T11:44:51.686Z,94511.00